Time;durP1;ratioP1;P1;durP2;ratioP2;P2;SDS_P1;SDS_P2;PMS_P1;PMS_P2;Temp;Humidity;BMP_temperature;BMP_pressure;BME280_temperature;BME280_humidity;BME280_pressure;Samples;Min_cycle;Max_cycle;Signal;HPM_P1;HPM_P2
2022/10/06 00:01:32;;;;;;;1.23;1.13;;;;;;;;;;5101885;28;20475;-72
2022/10/06 00:04:29;;;;;;;2.00;0.90;;;;;;;;;;5096798;28;20572;-72
2022/10/06 00:07:38;;;;;;;1.10;0.80;;;;;;;;;;5094421;28;20569;-71
2022/10/06 00:10:47;;;;;;;0.87;0.87;;;;;;;;;;5102302;28;20876;-72
2022/10/06 00:13:45;;;;;;;1.10;1.00;;;;;;;;;;5094769;28;20880;-71
2022/10/06 00:20:21;;;;;;;1.53;0.90;;;;;;;;;;5096077;27;20825;-71
2022/10/06 00:23:42;;;;;;;1.10;0.73;;;;;;;;;;5096898;27;20544;-72
2022/10/06 00:26:35;;;;;;;2.23;1.00;;;;;;;;;;5096014;27;20471;-71
2022/10/06 00:29:42;;;;;;;;;;;;;;;;;;;;;
2022/10/06 00:32:54;;;;;;;0.90;0.90;;;;;;;;;;5095467;27;20437;-71
2022/10/06 00:35:56;;;;;;;0.70;0.70;;;;;;;;;;5094594;28;20482;-72
2022/10/06 00:38:58;;;;;;;0.70;0.70;;;;;;;;;;5097346;28;20536;-71
2022/10/06 00:41:58;;;;;;;3.70;1.00;;;;;;;;;;5097969;28;20475;-72
2022/10/06 00:44:52;;;;;;;1.20;1.00;;;;;;;;;;5097152;27;20456;-72
2022/10/06 00:47:50;;;;;;;2.40;0.80;;;;;;;;;;5095985;27;20893;-71
2022/10/06 00:50:54;;;;;;;1.03;0.80;;;;;;;;;;5098431;27;20449;-72
2022/10/06 00:53:49;;;;;;;1.03;0.80;;;;;;;;;;5098777;27;20452;-71
2022/10/06 00:57:03;;;;;;;2.00;1.07;;;;;;;;;;5093744;27;20502;-72
2022/10/06 00:59:56;;;;;;;1.70;0.90;;;;;;;;;;5091831;28;20476;-71
2022/10/06 01:03:00;;;;;;;1.20;0.73;;;;;;;;;;5091169;27;20988;-72
2022/10/06 01:06:05;;;;;;;1.27;0.80;;;;;;;;;;5090823;28;20476;-71
2022/10/06 01:09:01;;;;;;;1.50;0.87;;;;;;;;;;5095803;27;20482;-72
2022/10/06 01:12:10;;;;;;;2.47;1.00;;;;;;;;;;5098070;27;20444;-71
2022/10/06 01:15:15;;;;;;;1.73;0.80;;;;;;;;;;5084690;28;20446;-72
2022/10/06 01:18:25;;;;;;;1.23;0.80;;;;;;;;;;5090723;28;20547;-72
2022/10/06 01:21:44;;;;;;;1.27;1.00;;;;;;;;;;5093816;28;20476;-72
2022/10/06 01:24:58;;;;;;;1.60;1.00;;;;;;;;;;5097149;27;20451;-72
2022/10/06 01:28:00;;;;;;;1.87;0.80;;;;;;;;;;5093550;28;20483;-72
2022/10/06 01:31:17;;;;;;;0.70;0.70;;;;;;;;;;5088858;28;20471;-71
2022/10/06 01:34:16;;;;;;;1.37;0.70;;;;;;;;;;5095747;28;20455;-72
2022/10/06 01:37:21;;;;;;;1.53;0.70;;;;;;;;;;5095897;28;20467;-72
2022/10/06 01:40:40;;;;;;;0.77;0.60;;;;;;;;;;5094893;28;20461;-71
2022/10/06 01:43:36;;;;;;;1.63;0.73;;;;;;;;;;5095277;28;20474;-72
2022/10/06 01:46:56;;;;;;;0.90;0.70;;;;;;;;;;5096693;28;20464;-72
2022/10/06 01:50:15;;;;;;;1.17;0.80;;;;;;;;;;5085193;28;20451;-72
2022/10/06 01:53:35;;;;;;;0.80;0.63;;;;;;;;;;5095153;28;20882;-72
2022/10/06 01:56:38;;;;;;;0.93;0.77;;;;;;;;;;5094918;28;20499;-71
2022/10/06 01:59:41;;;;;;;0.80;0.70;;;;;;;;;;5095391;28;20453;-72
2022/10/06 02:02:55;;;;;;;2.50;1.20;;;;;;;;;;5088043;28;20473;-71
2022/10/06 02:05:58;;;;;;;1.70;0.80;;;;;;;;;;5092319;28;20475;-71
2022/10/06 02:09:04;;;;;;;1.00;0.63;;;;;;;;;;5087214;28;20470;-72
2022/10/06 02:12:08;;;;;;;1.50;0.90;;;;;;;;;;5097002;27;20450;-72
2022/10/06 02:15:23;;;;;;;1.57;1.00;;;;;;;;;;5094583;27;20558;-72
2022/10/06 02:18:39;;;;;;;;;;;;;;;;;;;;;
2022/10/06 02:24:42;;;;;;;3.17;1.67;;;;;;;;;;5097103;28;20437;-71
2022/10/06 02:27:43;;;;;;;3.23;1.07;;;;;;;;;;5096612;28;21030;-72
2022/10/06 02:30:51;;;;;;;5.57;1.40;;;;;;;;;;5092517;27;20589;-72
2022/10/06 02:37:23;;;;;;;3.10;0.83;;;;;;;;;;5073255;28;20488;-71
2022/10/06 02:40:42;;;;;;;2.30;1.03;;;;;;;;;;5094889;28;20452;-72
2022/10/06 02:43:56;;;;;;;1.17;0.70;;;;;;;;;;5096027;28;20502;-72
2022/10/06 02:47:05;;;;;;;1.70;0.97;;;;;;;;;;5095599;28;20472;-72
2022/10/06 02:50:37;;;;;;;2.97;0.90;;;;;;;;;;5097923;28;20464;-72
2022/10/06 02:53:39;;;;;;;4.73;1.00;;;;;;;;;;4990382;28;20496;-72
2022/10/06 03:00:13;;;;;;;1.53;1.00;;;;;;;;;;5092894;28;21352;-72
2022/10/06 03:03:19;;;;;;;2.60;1.23;;;;;;;;;;5096574;28;20621;-71
2022/10/06 03:06:28;;;;;;;5.90;1.23;;;;;;;;;;5086943;28;20467;-72
2022/10/06 03:13:11;;;;;;;2.10;1.30;;;;;;;;;;5095042;28;20970;-72
2022/10/06 03:16:06;;;;;;;4.30;1.40;;;;;;;;;;5093294;28;20461;-72
2022/10/06 03:19:00;;;;;;;4.97;1.27;;;;;;;;;;5093746;28;20480;-72
2022/10/06 03:25:38;;;;;;;3.07;1.40;;;;;;;;;;5083226;28;20479;-72
2022/10/06 03:28:27;;;;;;;2.53;1.13;;;;;;;;;;5096060;28;20605;-72
2022/10/06 03:31:27;;;;;;;4.33;1.30;;;;;;;;;;5095890;28;20463;-72
2022/10/06 03:35:06;;;;;;;;;;;;;;;;;;;;;
2022/10/06 03:38:01;;;;;;;5.10;1.40;;;;;;;;;;5096331;28;20486;-72
2022/10/06 03:41:17;;;;;;;3.93;1.37;;;;;;;;;;5094371;28;20575;-71
2022/10/06 03:44:10;;;;;;;3.13;1.50;;;;;;;;;;5090279;28;20496;-71
2022/10/06 03:47:40;;;;;;;4.30;1.40;;;;;;;;;;5088923;28;20479;-71
2022/10/06 03:50:44;;;;;;;2.30;1.20;;;;;;;;;;5093866;28;20452;-72
2022/10/06 03:53:55;;;;;;;5.27;1.70;;;;;;;;;;5097128;28;20449;-72
2022/10/06 03:57:09;;;;;;;;;;;;;;;;;;;;;
2022/10/06 04:00:01;;;;;;;3.63;1.50;;;;;;;;;;5098237;28;20456;-72
2022/10/06 04:02:57;;;;;;;8.20;1.80;;;;;;;;;;5095642;28;20880;-72
2022/10/06 04:06:12;;;;;;;4.03;1.20;;;;;;;;;;5095204;28;21005;-72
2022/10/06 04:09:14;;;;;;;4.73;1.50;;;;;;;;;;5096107;28;20502;-71
2022/10/06 04:12:30;;;;;;;3.40;1.30;;;;;;;;;;5097913;28;20684;-72
2022/10/06 04:15:43;;;;;;;3.13;1.37;;;;;;;;;;5091867;27;20870;-71
2022/10/06 04:18:38;;;;;;;4.57;1.60;;;;;;;;;;5092706;27;20470;-72
2022/10/06 04:21:43;;;;;;;5.00;1.40;;;;;;;;;;5098687;28;20447;-71
2022/10/06 04:24:47;;;;;;;5.00;1.30;;;;;;;;;;5097272;27;20468;-72
2022/10/06 04:27:57;;;;;;;5.03;1.40;;;;;;;;;;5089682;28;20499;-71
2022/10/06 04:31:04;;;;;;;9.37;1.80;;;;;;;;;;5088871;27;21167;-72
2022/10/06 04:34:20;;;;;;;3.50;1.43;;;;;;;;;;5097041;27;20442;-72
2022/10/06 04:37:44;;;;;;;4.90;1.37;;;;;;;;;;5092578;27;20490;-72
2022/10/06 04:40:42;;;;;;;4.70;1.40;;;;;;;;;;5098224;27;20458;-72
2022/10/06 04:47:03;;;;;;;5.60;1.53;;;;;;;;;;5030857;28;20490;-71
2022/10/06 04:53:33;;;;;;;4.27;1.50;;;;;;;;;;5078660;27;20449;-72
2022/10/06 04:56:47;;;;;;;4.17;1.37;;;;;;;;;;5090252;27;20479;-71
2022/10/06 05:03:30;;;;;;;6.77;1.60;;;;;;;;;;5045167;28;20493;-72
2022/10/06 05:06:46;;;;;;;3.67;2.00;;;;;;;;;;5042837;28;21096;-72
2022/10/06 05:13:07;;;;;;;6.33;2.20;;;;;;;;;;5087844;28;20449;-71
2022/10/06 05:16:17;;;;;;;5.17;1.40;;;;;;;;;;5087173;27;20484;-72
2022/10/06 05:19:29;;;;;;;4.83;1.73;;;;;;;;;;5090013;27;20841;-74
2022/10/06 05:22:30;;;;;;;7.03;1.57;;;;;;;;;;5054961;27;20979;-71
2022/10/06 05:25:31;;;;;;;4.00;2.13;;;;;;;;;;5088730;28;20483;-71
2022/10/06 05:28:51;;;;;;;3.63;1.50;;;;;;;;;;5085201;28;20477;-72
2022/10/06 05:32:04;;;;;;;;;;;;;;;;;;;;;
2022/10/06 05:35:13;;;;;;;9.33;2.03;;;;;;;;;;5083627;28;20467;-72
2022/10/06 05:38:17;;;;;;;13.90;2.23;;;;;;;;;;5083940;28;20480;-71
2022/10/06 05:41:28;;;;;;;4.37;1.47;;;;;;;;;;5083680;28;20448;-73
2022/10/06 05:44:38;;;;;;;6.57;2.00;;;;;;;;;;5082877;27;20859;-72
2022/10/06 05:47:41;;;;;;;5.87;2.23;;;;;;;;;;5075114;27;20804;-74
2022/10/06 05:51:04;;;;;;;4.00;1.53;;;;;;;;;;5092410;28;21278;-72
2022/10/06 05:54:00;;;;;;;6.50;1.80;;;;;;;;;;5090900;28;20548;-72
2022/10/06 05:57:03;;;;;;;9.13;2.27;;;;;;;;;;5090496;27;20511;-71
2022/10/06 06:00:02;;;;;;;5.23;2.00;;;;;;;;;;5095771;27;20967;-71
2022/10/06 06:02:51;;;;;;;2.90;2.00;;;;;;;;;;5085442;28;20449;-72
2022/10/06 06:05:41;;;;;;;7.63;1.90;;;;;;;;;;5083467;28;20475;-71
2022/10/06 06:08:35;;;;;;;3.53;1.90;;;;;;;;;;5095763;27;20605;-72
2022/10/06 06:11:30;;;;;;;5.30;1.80;;;;;;;;;;5089287;27;20536;-71
2022/10/06 06:15:59;;;;;;;5.03;2.10;;;;;;;;;;5086126;27;20440;-72
2022/10/06 06:17:34;;;;;;;7.13;2.00;;;;;;;;;;5087287;27;20488;-71
2022/10/06 06:20:25;;;;;;;2.70;1.57;;;;;;;;;;5081711;28;20459;-70
2022/10/06 06:23:20;;;;;;;8.30;1.90;;;;;;;;;;5094922;28;20452;-71
2022/10/06 06:26:09;;;;;;;5.60;1.60;;;;;;;;;;5092650;28;20467;-71
2022/10/06 06:32:08;;;;;;;8.30;1.63;;;;;;;;;;5091840;28;20455;-71
2022/10/06 06:34:57;;;;;;;5.90;1.90;;;;;;;;;;5093411;28;20444;-72
2022/10/06 06:37:49;;;;;;;5.10;1.70;;;;;;;;;;5094676;27;20475;-71
2022/10/06 06:40:45;;;;;;;5.80;1.70;;;;;;;;;;5095255;28;20444;-72
2022/10/06 06:43:38;;;;;;;4.57;1.80;;;;;;;;;;5089260;28;20464;-72
2022/10/06 06:46:35;;;;;;;5.17;1.80;;;;;;;;;;5093284;28;20854;-72
2022/10/06 06:49:29;;;;;;;5.80;2.10;;;;;;;;;;5097484;28;20979;-72
2022/10/06 06:52:22;;;;;;;7.50;2.57;;;;;;;;;;5094210;28;20963;-72
2022/10/06 06:55:17;;;;;;;6.40;2.23;;;;;;;;;;5097488;28;20471;-72
2022/10/06 06:58:18;;;;;;;8.80;2.40;;;;;;;;;;5097140;28;21082;-71
2022/10/06 07:01:12;;;;;;;5.20;1.40;;;;;;;;;;5086222;28;20463;-71
2022/10/06 07:04:13;;;;;;;7.13;1.90;;;;;;;;;;5094547;28;20551;-72
2022/10/06 07:07:08;;;;;;;4.73;1.60;;;;;;;;;;5092793;28;20480;-72
2022/10/06 07:10:00;;;;;;;7.47;1.90;;;;;;;;;;5089953;28;20968;-71
2022/10/06 07:13:09;;;;;;;6.43;2.27;;;;;;;;;;5092064;28;20453;-71
2022/10/06 07:25:30;;;;;;;7.10;1.87;;;;;;;;;;5092483;28;21006;-71
2022/10/06 07:28:25;;;;;;;7.07;1.73;;;;;;;;;;5098222;28;20963;-72
2022/10/06 07:31:18;;;;;;;9.90;3.40;;;;;;;;;;5088696;28;20679;-72
2022/10/06 07:34:08;;;;;;;5.20;1.97;;;;;;;;;;5091785;28;20458;-72
2022/10/06 07:37:00;;;;;;;3.70;1.60;;;;;;;;;;5095688;28;20951;-71
2022/10/06 07:39:59;;;;;;;9.23;2.40;;;;;;;;;;5097811;28;20451;-71
2022/10/06 07:42:57;;;;;;;4.83;1.90;;;;;;;;;;5094044;28;20457;-72
2022/10/06 07:45:50;;;;;;;6.17;1.70;;;;;;;;;;5091294;27;20472;-72
2022/10/06 07:48:43;;;;;;;11.20;1.93;;;;;;;;;;5096813;28;20474;-72
2022/10/06 07:51:35;;;;;;;5.30;1.60;;;;;;;;;;5096358;28;20451;-72
2022/10/06 07:54:28;;;;;;;4.90;1.73;;;;;;;;;;5096843;28;20947;-71
2022/10/06 07:57:18;;;;;;;4.93;1.70;;;;;;;;;;5087191;28;20480;-71
2022/10/06 08:00:15;;;;;;;9.03;1.90;;;;;;;;;;5098674;28;20562;-72
2022/10/06 08:03:10;;;;;;;3.93;1.53;;;;;;;;;;5097738;28;20507;-72
2022/10/06 08:06:02;;;;;;;4.50;1.83;;;;;;;;;;5096937;28;20480;-72
2022/10/06 08:08:59;;;;;;;5.20;1.77;;;;;;;;;;5101044;28;20986;-72
2022/10/06 08:11:53;;;;;;;5.57;1.67;;;;;;;;;;5098671;28;20456;-72
2022/10/06 08:14:44;;;;;;;4.70;1.53;;;;;;;;;;5096440;28;20986;-71
2022/10/06 08:17:37;;;;;;;8.80;2.03;;;;;;;;;;5101257;28;20463;-72
2022/10/06 08:20:32;;;;;;;4.97;2.10;;;;;;;;;;5097989;28;20992;-71
2022/10/06 08:23:23;;;;;;;5.80;1.57;;;;;;;;;;5091875;28;20824;-72
2022/10/06 08:26:21;;;;;;;3.87;1.77;;;;;;;;;;5084752;27;21011;-72
2022/10/06 08:29:23;;;;;;;6.20;1.97;;;;;;;;;;5097953;27;20533;-72
2022/10/06 08:32:19;;;;;;;5.83;2.23;;;;;;;;;;5095544;28;20459;-72
2022/10/06 08:35:08;;;;;;;7.77;2.10;;;;;;;;;;5093759;27;20467;-72
2022/10/06 08:38:01;;;;;;;4.60;1.77;;;;;;;;;;5098702;28;20478;-72
2022/10/06 08:40:50;;;;;;;4.20;1.70;;;;;;;;;;5098234;27;20456;-71
2022/10/06 08:43:44;;;;;;;6.07;1.97;;;;;;;;;;5094303;27;20448;-72
2022/10/06 08:46:50;;;;;;;3.43;1.63;;;;;;;;;;5094691;28;20468;-72
2022/10/06 08:49:47;;;;;;;3.83;1.93;;;;;;;;;;5100687;27;20463;-72
2022/10/06 08:52:44;;;;;;;7.03;2.03;;;;;;;;;;5097775;27;20476;-72
2022/10/06 08:55:40;;;;;;;7.13;2.10;;;;;;;;;;5097652;28;20461;-72
2022/10/06 08:58:38;;;;;;;7.50;1.90;;;;;;;;;;5097038;28;20492;-72
2022/10/06 09:01:27;;;;;;;7.03;2.70;;;;;;;;;;5097383;28;20455;-72
2022/10/06 09:04:31;;;;;;;6.23;2.07;;;;;;;;;;5097537;28;20977;-72
2022/10/06 09:07:32;;;;;;;6.87;2.13;;;;;;;;;;5095144;28;21365;-72
2022/10/06 09:10:31;;;;;;;5.27;2.43;;;;;;;;;;5101270;28;20455;-71
2022/10/06 09:13:24;;;;;;;7.27;2.17;;;;;;;;;;5097034;28;20444;-72
2022/10/06 09:16:15;;;;;;;6.37;2.03;;;;;;;;;;5098653;28;20464;-73
2022/10/06 09:19:08;;;;;;;5.87;1.67;;;;;;;;;;5096268;28;20464;-72
2022/10/06 09:22:03;;;;;;;3.53;1.73;;;;;;;;;;5097270;28;20460;-72
2022/10/06 09:24:55;;;;;;;6.50;1.83;;;;;;;;;;5096173;27;20475;-72
2022/10/06 09:27:49;;;;;;;9.97;2.10;;;;;;;;;;5095052;27;20455;-72
2022/10/06 09:30:41;;;;;;;4.70;2.00;;;;;;;;;;5097427;28;20823;-72
2022/10/06 09:33:34;;;;;;;4.53;2.00;;;;;;;;;;5095575;28;20459;-72
2022/10/06 09:36:30;;;;;;;5.60;2.23;;;;;;;;;;5093823;28;20479;-72
2022/10/06 09:39:32;;;;;;;9.10;2.33;;;;;;;;;;5094686;28;20448;-72
2022/10/06 09:42:27;;;;;;;10.07;2.33;;;;;;;;;;5095778;28;20449;-71
2022/10/06 09:45:25;;;;;;;6.30;1.70;;;;;;;;;;5093729;27;20472;-72
2022/10/06 09:48:26;;;;;;;3.77;1.53;;;;;;;;;;5095965;28;20475;-72
2022/10/06 09:51:23;;;;;;;5.97;2.00;;;;;;;;;;5096405;28;20444;-72
2022/10/06 09:54:27;;;;;;;4.30;1.47;;;;;;;;;;5091492;28;20968;-71
2022/10/06 09:57:32;;;;;;;3.47;1.60;;;;;;;;;;5092647;28;20476;-72
2022/10/06 10:00:28;;;;;;;5.93;1.50;;;;;;;;;;5089823;28;21063;-72
2022/10/06 10:03:18;;;;;;;6.60;2.00;;;;;;;;;;5093512;28;20514;-72
2022/10/06 10:06:07;;;;;;;4.30;1.83;;;;;;;;;;5097684;28;20521;-72
2022/10/06 10:09:22;;;;;;;3.90;1.60;;;;;;;;;;5095507;28;20870;-72
2022/10/06 10:12:29;;;;;;;4.20;1.60;;;;;;;;;;5089177;28;20444;-71
2022/10/06 10:15:31;;;;;;;9.23;2.30;;;;;;;;;;5092804;28;20501;-73
2022/10/06 10:18:30;;;;;;;3.27;1.80;;;;;;;;;;5097657;28;20483;-72
2022/10/06 10:21:25;;;;;;;6.83;2.10;;;;;;;;;;5095420;27;20449;-72
2022/10/06 10:24:20;;;;;;;4.27;1.97;;;;;;;;;;5101132;28;20456;-72
2022/10/06 10:27:13;;;;;;;5.63;2.30;;;;;;;;;;5088660;28;20468;-72
2022/10/06 10:30:15;;;;;;;4.53;1.80;;;;;;;;;;5088583;28;20614;-71
2022/10/06 10:33:17;;;;;;;5.33;1.70;;;;;;;;;;5096554;28;20539;-72
2022/10/06 10:36:16;;;;;;;8.37;2.10;;;;;;;;;;5092159;28;20472;-71
2022/10/06 10:39:20;;;;;;;6.10;2.00;;;;;;;;;;5068725;28;20475;-72
2022/10/06 10:42:14;;;;;;;5.47;2.10;;;;;;;;;;5088658;28;20453;-71
2022/10/06 10:45:08;;;;;;;5.70;1.67;;;;;;;;;;5093131;28;20445;-72
2022/10/06 10:48:02;;;;;;;7.37;2.00;;;;;;;;;;5089820;28;20492;-72
2022/10/06 10:50:59;;;;;;;5.40;2.10;;;;;;;;;;5091996;28;20455;-72
2022/10/06 10:53:50;;;;;;;5.37;1.73;;;;;;;;;;5092202;28;20453;-72
2022/10/06 10:56:41;;;;;;;4.83;1.53;;;;;;;;;;5089809;28;20472;-72
2022/10/06 10:59:37;;;;;;;16.17;2.10;;;;;;;;;;5090018;28;20453;-72
2022/10/06 11:02:28;;;;;;;5.40;1.57;;;;;;;;;;5088674;28;20456;-73
2022/10/06 11:05:27;;;;;;;5.20;1.97;;;;;;;;;;5091851;28;20525;-71
2022/10/06 11:08:32;;;;;;;5.50;1.90;;;;;;;;;;5092996;28;20463;-71
2022/10/06 11:11:27;;;;;;;7.00;2.50;;;;;;;;;;5094282;28;20456;-71
2022/10/06 11:14:24;;;;;;;8.20;2.00;;;;;;;;;;5097545;28;20807;-71
2022/10/06 11:17:22;;;;;;;6.77;2.83;;;;;;;;;;5091426;28;20484;-72
2022/10/06 11:20:21;;;;;;;6.33;1.90;;;;;;;;;;5093354;28;20447;-72
2022/10/06 11:23:25;;;;;;;3.77;1.70;;;;;;;;;;5101304;28;20453;-72
2022/10/06 11:26:19;;;;;;;6.27;1.83;;;;;;;;;;5095154;27;20479;-72
2022/10/06 11:29:29;;;;;;;3.63;1.30;;;;;;;;;;5088624;28;20878;-72
2022/10/06 11:32:36;;;;;;;6.87;1.50;;;;;;;;;;5097382;28;20440;-72
2022/10/06 11:35:29;;;;;;;7.07;2.00;;;;;;;;;;5095480;28;20488;-72
2022/10/06 11:38:27;;;;;;;2.90;1.60;;;;;;;;;;5094570;28;20479;-71
2022/10/06 11:41:22;;;;;;;2.27;1.30;;;;;;;;;;5087964;28;20598;-72
2022/10/06 11:44:21;;;;;;;3.50;1.37;;;;;;;;;;5096525;28;20450;-73
2022/10/06 11:47:19;;;;;;;3.23;1.60;;;;;;;;;;5089907;27;20475;-73
2022/10/06 11:50:33;;;;;;;6.47;1.83;;;;;;;;;;5092928;27;20542;-73
2022/10/06 11:53:38;;;;;;;3.60;1.50;;;;;;;;;;5087305;28;20471;-71
2022/10/06 11:56:41;;;;;;;7.60;1.70;;;;;;;;;;5094745;28;21022;-71
2022/10/06 11:59:34;;;;;;;2.30;1.40;;;;;;;;;;5095677;28;20489;-72
2022/10/06 12:02:36;;;;;;;3.03;1.53;;;;;;;;;;5092729;27;20527;-71
2022/10/06 12:05:32;;;;;;;3.50;1.40;;;;;;;;;;5093223;27;20495;-71
2022/10/06 12:08:41;;;;;;;3.83;1.30;;;;;;;;;;5097074;28;20468;-71
2022/10/06 12:11:39;;;;;;;6.53;1.90;;;;;;;;;;5094631;28;20455;-71
2022/10/06 12:14:35;;;;;;;2.87;1.33;;;;;;;;;;5090188;27;20519;-72
2022/10/06 12:17:54;;;;;;;4.10;1.37;;;;;;;;;;5094480;27;20472;-73
2022/10/06 12:20:52;;;;;;;3.80;1.80;;;;;;;;;;5097865;27;20448;-75
2022/10/06 12:23:51;;;;;;;2.20;1.37;;;;;;;;;;5089398;27;20444;-73
2022/10/06 12:26:50;;;;;;;3.40;1.30;;;;;;;;;;5083617;28;20528;-73
2022/10/06 12:29:46;;;;;;;4.40;1.80;;;;;;;;;;5095442;28;20450;-73
2022/10/06 12:32:45;;;;;;;3.20;1.73;;;;;;;;;;5090689;27;20840;-73
2022/10/06 12:35:35;;;;;;;4.57;1.63;;;;;;;;;;5091167;28;20486;-73
2022/10/06 12:39:08;;;;;;;4.13;1.77;;;;;;;;;;5089154;27;20468;-73
2022/10/06 12:42:07;;;;;;;4.83;1.80;;;;;;;;;;5087582;28;22480;-72
2022/10/06 12:45:01;;;;;;;2.77;1.17;;;;;;;;;;5090132;28;20447;-72
2022/10/06 12:47:54;;;;;;;4.67;1.50;;;;;;;;;;5096000;28;20495;-71
2022/10/06 12:50:45;;;;;;;4.50;1.30;;;;;;;;;;5097474;28;20968;-72
2022/10/06 12:53:40;;;;;;;2.30;1.30;;;;;;;;;;5089592;28;20461;-72
2022/10/06 12:56:32;;;;;;;4.00;1.87;;;;;;;;;;5096302;28;20504;-72
2022/10/06 12:59:32;;;;;;;6.90;1.97;;;;;;;;;;5099221;28;20847;-73
2022/10/06 13:02:27;;;;;;;4.83;1.90;;;;;;;;;;5094848;28;20448;-72
2022/10/06 13:05:25;;;;;;;3.00;1.60;;;;;;;;;;5090120;27;20474;-73
2022/10/06 13:08:23;;;;;;;5.10;1.60;;;;;;;;;;5095045;27;20569;-72
2022/10/06 13:11:19;;;;;;;1.93;1.63;;;;;;;;;;5090946;28;20451;-73
2022/10/06 13:14:09;;;;;;;4.23;1.50;;;;;;;;;;5094498;28;20457;-73
2022/10/06 13:17:02;;;;;;;5.23;1.90;;;;;;;;;;5094116;28;20472;-73
2022/10/06 13:19:52;;;;;;;2.37;1.37;;;;;;;;;;5094435;28;20575;-72
2022/10/06 13:22:47;;;;;;;4.80;1.83;;;;;;;;;;5091020;28;20456;-72
2022/10/06 13:25:41;;;;;;;2.97;1.60;;;;;;;;;;5087796;28;20555;-72
2022/10/06 13:28:48;;;;;;;2.70;1.40;;;;;;;;;;5096390;27;20894;-72
2022/10/06 13:31:46;;;;;;;3.00;1.47;;;;;;;;;;5085336;27;20501;-71
2022/10/06 13:34:44;;;;;;;3.07;1.23;;;;;;;;;;5086831;27;20471;-72
2022/10/06 13:37:36;;;;;;;2.43;1.50;;;;;;;;;;5090875;28;20469;-70
2022/10/06 13:40:30;;;;;;;3.60;1.40;;;;;;;;;;5090310;27;20453;-72
2022/10/06 13:43:39;;;;;;;3.50;1.50;;;;;;;;;;5091880;28;21015;-71
2022/10/06 13:46:31;;;;;;;1.63;1.20;;;;;;;;;;5091720;28;20478;-71
2022/10/06 13:49:31;;;;;;;2.40;1.40;;;;;;;;;;5089068;28;20451;-72
2022/10/06 13:52:24;;;;;;;2.30;1.30;;;;;;;;;;5093005;28;20486;-72
2022/10/06 13:55:26;;;;;;;3.10;1.70;;;;;;;;;;5080174;27;21006;-73
2022/10/06 13:58:18;;;;;;;4.70;1.70;;;;;;;;;;5089135;28;20466;-72
2022/10/06 14:01:16;;;;;;;2.97;1.17;;;;;;;;;;5091117;28;20449;-72
2022/10/06 14:04:17;;;;;;;2.63;0.97;;;;;;;;;;5090110;28;20956;-71
2022/10/06 14:07:15;;;;;;;3.13;1.40;;;;;;;;;;5086647;28;20480;-70
2022/10/06 14:10:06;;;;;;;3.83;1.60;;;;;;;;;;5093431;27;20827;-71
2022/10/06 14:12:59;;;;;;;4.23;1.20;;;;;;;;;;5093979;27;20475;-73
2022/10/06 14:15:51;;;;;;;2.50;1.40;;;;;;;;;;5106939;28;20483;-71
2022/10/06 14:18:48;;;;;;;4.80;1.50;;;;;;;;;;5106006;27;20509;-70
2022/10/06 14:21:40;;;;;;;3.20;1.70;;;;;;;;;;5105099;28;20443;-71
2022/10/06 14:24:36;;;;;;;3.83;1.40;;;;;;;;;;5098440;27;20946;-72
2022/10/06 14:27:25;;;;;;;3.10;0.97;;;;;;;;;;5091770;28;21027;-71
2022/10/06 14:30:18;;;;;;;2.07;1.20;;;;;;;;;;5092162;28;20440;-71
2022/10/06 14:33:15;;;;;;;3.97;1.57;;;;;;;;;;5087940;28;20460;-71
2022/10/06 14:36:14;;;;;;;2.60;1.30;;;;;;;;;;5085346;28;20481;-71
2022/10/06 14:39:03;;;;;;;2.90;1.47;;;;;;;;;;5082160;28;20460;-73
2022/10/06 14:41:53;;;;;;;5.50;2.00;;;;;;;;;;5089820;28;20456;-72
2022/10/06 14:44:44;;;;;;;4.07;1.20;;;;;;;;;;5093494;28;20448;-72
2022/10/06 14:50:48;;;;;;;3.40;1.23;;;;;;;;;;5088975;28;20452;-72
2022/10/06 14:53:41;;;;;;;3.30;1.63;;;;;;;;;;5083213;28;21718;-72
2022/10/06 14:56:32;;;;;;;4.70;1.87;;;;;;;;;;5086251;28;20471;-72
2022/10/06 14:59:22;;;;;;;8.50;1.70;;;;;;;;;;5082339;28;20451;-70
2022/10/06 15:02:14;;;;;;;3.17;1.13;;;;;;;;;;5082447;28;20453;-71
2022/10/06 15:05:10;;;;;;;3.80;1.50;;;;;;;;;;5094629;28;20443;-71
2022/10/06 15:08:10;;;;;;;4.57;1.20;;;;;;;;;;5079596;28;20911;-70
2022/10/06 15:11:03;;;;;;;3.70;1.27;;;;;;;;;;5087283;28;20432;-70
2022/10/06 15:13:58;;;;;;;2.60;1.57;;;;;;;;;;5087560;28;20829;-70
2022/10/06 15:16:48;;;;;;;1.97;0.80;;;;;;;;;;5095121;28;20483;-71
2022/10/06 15:19:39;;;;;;;3.50;1.43;;;;;;;;;;5093527;28;20547;-71
2022/10/06 15:22:39;;;;;;;2.90;1.43;;;;;;;;;;5095466;28;21045;-71
2022/10/06 15:31:51;;;;;;;2.07;1.10;;;;;;;;;;5085768;28;21144;-70
2022/10/06 15:34:47;;;;;;;4.10;1.20;;;;;;;;;;5083487;28;20457;-70
2022/10/06 15:37:38;;;;;;;2.50;1.10;;;;;;;;;;5081384;28;20483;-71
2022/10/06 15:40:34;;;;;;;2.30;1.10;;;;;;;;;;5088532;28;21015;-72
2022/10/06 15:43:53;;;;;;;4.87;1.10;;;;;;;;;;5093930;28;20447;-71
2022/10/06 15:46:36;;;;;;;3.20;1.53;;;;;;;;;;5088122;28;21376;-71
2022/10/06 15:49:31;;;;;;;2.53;1.30;;;;;;;;;;5089142;28;20473;-71
2022/10/06 15:52:19;;;;;;;2.30;1.17;;;;;;;;;;5096364;28;20446;-71
2022/10/06 15:55:12;;;;;;;2.60;1.10;;;;;;;;;;5090692;28;20483;-71
2022/10/06 15:58:00;;;;;;;2.60;1.20;;;;;;;;;;5094631;28;20475;-70
2022/10/06 16:00:57;;;;;;;4.10;1.33;;;;;;;;;;5090930;28;20971;-70
2022/10/06 16:03:45;;;;;;;3.33;1.30;;;;;;;;;;5091978;28;20453;-71
2022/10/06 16:06:47;;;;;;;3.77;1.23;;;;;;;;;;5090477;28;21101;-70
2022/10/06 16:09:40;;;;;;;4.17;1.50;;;;;;;;;;5084561;27;21748;-71
2022/10/06 16:12:32;;;;;;;4.60;1.37;;;;;;;;;;5095325;28;21542;-71
2022/10/06 16:15:21;;;;;;;2.33;1.23;;;;;;;;;;5092830;27;20822;-70
2022/10/06 16:18:11;;;;;;;1.53;1.03;;;;;;;;;;5088696;28;20520;-71
2022/10/06 16:21:04;;;;;;;5.60;1.47;;;;;;;;;;5096495;28;20449;-71
2022/10/06 16:23:53;;;;;;;3.60;1.27;;;;;;;;;;5097420;28;20467;-71
2022/10/06 16:26:46;;;;;;;3.53;1.20;;;;;;;;;;5094145;28;20482;-72
2022/10/06 16:29:39;;;;;;;3.40;1.40;;;;;;;;;;5096596;28;20480;-70
2022/10/06 16:32:28;;;;;;;8.00;1.13;;;;;;;;;;5096568;28;20970;-71
2022/10/06 16:35:25;;;;;;;3.23;1.63;;;;;;;;;;5093238;27;20471;-71
2022/10/06 16:38:18;;;;;;;4.13;1.30;;;;;;;;;;5089433;28;20468;-71
2022/10/06 16:41:16;;;;;;;3.40;1.40;;;;;;;;;;5091778;27;20488;-71
2022/10/06 16:44:05;;;;;;;2.43;1.30;;;;;;;;;;5095519;27;20485;-71
2022/10/06 16:47:03;;;;;;;2.83;1.50;;;;;;;;;;5091302;27;20484;-71
2022/10/06 16:49:52;;;;;;;3.80;1.37;;;;;;;;;;5095542;27;20483;-71
2022/10/06 16:52:51;;;;;;;4.30;1.30;;;;;;;;;;5095820;28;20849;-71
2022/10/06 16:55:44;;;;;;;2.43;1.23;;;;;;;;;;5094804;28;20468;-70
2022/10/06 16:58:43;;;;;;;4.10;1.50;;;;;;;;;;5095399;28;20540;-71
2022/10/06 17:01:38;;;;;;;3.67;1.40;;;;;;;;;;5105447;28;20488;-71
2022/10/06 17:04:33;;;;;;;6.43;1.67;;;;;;;;;;5106611;28;20448;-71
2022/10/06 17:07:24;;;;;;;4.03;1.50;;;;;;;;;;5089436;28;21192;-71
2022/10/06 17:10:20;;;;;;;4.40;1.50;;;;;;;;;;5094150;28;20476;-71
2022/10/06 17:13:13;;;;;;;2.20;1.60;;;;;;;;;;5091352;27;20452;-69
2022/10/06 17:16:03;;;;;;;2.53;1.60;;;;;;;;;;5097249;27;20929;-71
2022/10/06 17:19:11;;;;;;;3.70;1.80;;;;;;;;;;5090282;28;20469;-73
2022/10/06 17:22:06;;;;;;;4.20;2.10;;;;;;;;;;5091777;28;21158;-70
2022/10/06 17:24:54;;;;;;;3.50;1.97;;;;;;;;;;5089760;28;20455;-71
2022/10/06 17:27:43;;;;;;;3.00;1.50;;;;;;;;;;5098420;28;20472;-71
2022/10/06 17:30:45;;;;;;;6.70;1.60;;;;;;;;;;5094758;28;21072;-71
2022/10/06 17:33:37;;;;;;;2.53;1.90;;;;;;;;;;5096448;28;20466;-71
2022/10/06 17:36:28;;;;;;;3.83;2.00;;;;;;;;;;5096228;28;20488;-71
2022/10/06 17:39:24;;;;;;;4.03;1.80;;;;;;;;;;5095871;28;20448;-71
2022/10/06 17:42:20;;;;;;;2.07;1.60;;;;;;;;;;5091545;28;20451;-71
2022/10/06 17:45:14;;;;;;;5.83;2.27;;;;;;;;;;5096108;28;20456;-71
2022/10/06 17:48:12;;;;;;;4.10;2.37;;;;;;;;;;5094668;28;20488;-71
2022/10/06 17:51:04;;;;;;;3.10;2.50;;;;;;;;;;5088590;28;20567;-71
2022/10/06 17:53:55;;;;;;;4.63;2.53;;;;;;;;;;5086734;27;20455;-71
2022/10/06 17:56:47;;;;;;;4.37;2.50;;;;;;;;;;5093360;27;20555;-71
2022/10/06 17:59:43;;;;;;;5.47;2.37;;;;;;;;;;5093552;27;20600;-71
2022/10/06 18:02:32;;;;;;;2.60;2.27;;;;;;;;;;5089354;28;20454;-73
2022/10/06 18:05:26;;;;;;;2.90;2.30;;;;;;;;;;5089387;28;20469;-73
2022/10/06 18:08:22;;;;;;;4.47;2.30;;;;;;;;;;5094190;28;20477;-74
2022/10/06 18:11:34;;;;;;;3.33;2.10;;;;;;;;;;5092862;28;20476;-73
2022/10/06 18:14:26;;;;;;;3.83;2.17;;;;;;;;;;5093863;28;20452;-74
2022/10/06 18:17:22;;;;;;;2.70;2.23;;;;;;;;;;5082554;28;20483;-72
2022/10/06 18:20:11;;;;;;;3.87;2.37;;;;;;;;;;5088174;28;20451;-72
2022/10/06 18:23:07;;;;;;;3.43;2.10;;;;;;;;;;5086958;27;20588;-73
2022/10/06 18:26:00;;;;;;;4.47;3.20;;;;;;;;;;5085006;28;21119;-73
2022/10/06 18:28:59;;;;;;;3.47;2.07;;;;;;;;;;5091749;28;20818;-74
2022/10/06 18:31:55;;;;;;;4.27;2.07;;;;;;;;;;5098971;28;20440;-74
2022/10/06 18:35:07;;;;;;;2.80;1.70;;;;;;;;;;5093325;28;20890;-74
2022/10/06 18:38:16;;;;;;;3.20;2.07;;;;;;;;;;5095917;28;20490;-74
2022/10/06 18:41:07;;;;;;;3.53;2.03;;;;;;;;;;5097013;28;20497;-73
2022/10/06 18:43:56;;;;;;;4.97;1.90;;;;;;;;;;5098009;28;20796;-73
2022/10/06 18:50:10;;;;;;;5.23;2.00;;;;;;;;;;5033424;28;20489;-72
2022/10/06 18:53:05;;;;;;;4.53;2.20;;;;;;;;;;5089838;28;20475;-74
2022/10/06 18:55:56;;;;;;;3.90;2.00;;;;;;;;;;5097253;28;20476;-73
2022/10/06 18:58:48;;;;;;;4.33;2.00;;;;;;;;;;5094459;27;20480;-72